Time;durP1;ratioP1;P1;durP2;ratioP2;P2;SDS_P1;SDS_P2;PMS_P1;PMS_P2;Temp;Humidity;BMP_temperature;BMP_pressure;BME280_temperature;BME280_humidity;BME280_pressure;Samples;Min_cycle;Max_cycle;Signal;HPM_P1;HPM_P2
2023/06/01 00:01:27;;;;;;;1.67;1.57;;;21.40;44.00;;;;;;4928339;28;20475;-71
2023/06/01 00:03:52;;;;;;;1.90;1.80;;;21.40;44.00;;;;;;4926395;28;20232;-73
2023/06/01 00:06:18;;;;;;;1.77;1.67;;;21.40;44.00;;;;;;4926509;28;20690;-73
2023/06/01 00:08:43;;;;;;;1.80;1.70;;;21.40;44.00;;;;;;4942847;28;20488;-71
2023/06/01 00:11:09;;;;;;;1.60;1.50;;;21.40;44.00;;;;;;4932485;28;20222;-73
2023/06/01 00:13:35;;;;;;;1.77;1.67;;;21.40;44.00;;;;;;4929908;28;20277;-73
2023/06/01 00:16:01;;;;;;;1.73;1.63;;;21.40;44.00;;;;;;4930739;28;20821;-74
2023/06/01 00:18:27;;;;;;;1.43;1.33;;;21.40;44.00;;;;;;4929069;28;20830;-73
2023/06/01 00:20:53;;;;;;;1.90;1.80;;;21.40;44.00;;;;;;4928670;28;20703;-73
2023/06/01 00:23:19;;;;;;;2.53;1.60;;;21.40;44.00;;;;;;4930852;28;20471;-74
2023/06/01 00:25:45;;;;;;;1.67;1.57;;;21.40;44.00;;;;;;4927530;28;22684;-71
2023/06/01 00:28:11;;;;;;;1.90;1.80;;;21.40;44.00;;;;;;4927833;28;20464;-73
2023/06/01 00:30:36;;;;;;;2.03;1.93;;;21.30;44.00;;;;;;4930490;28;20356;-73
2023/06/01 00:33:02;;;;;;;1.90;1.80;;;21.40;44.10;;;;;;4930392;28;20244;-73
2023/06/01 00:35:27;;;;;;;1.40;1.30;;;21.40;44.10;;;;;;4928915;28;20343;-73
2023/06/01 00:37:53;;;;;;;1.90;1.80;;;21.40;44.10;;;;;;4928401;28;20758;-71
2023/06/01 00:40:19;;;;;;;1.83;1.73;;;21.40;44.10;;;;;;4931221;28;20236;-73
2023/06/01 00:42:44;;;;;;;1.63;1.53;;;21.40;44.10;;;;;;4930767;28;20244;-73
2023/06/01 00:45:10;;;;;;;1.90;1.80;;;21.40;44.10;;;;;;4929367;28;20335;-73
2023/06/01 00:47:40;;;;;;;1.90;1.80;;;21.30;44.00;;;;;;4930548;28;20276;-73
2023/06/01 00:50:06;;;;;;;1.80;1.70;;;21.40;44.10;;;;;;4927985;28;20436;-72
2023/06/01 00:52:32;;;;;;;1.90;1.80;;;21.30;44.00;;;;;;4891636;28;1046082;-73
2023/06/01 00:54:57;;;;;;;1.70;1.60;;;21.40;44.20;;;;;;4929735;28;20217;-73
2023/06/01 00:57:26;;;;;;;1.60;1.50;;;21.40;44.20;;;;;;4929092;28;20225;-73
2023/06/01 00:59:52;;;;;;;1.73;1.63;;;21.30;44.10;;;;;;4930649;28;20246;-73
2023/06/01 01:02:18;;;;;;;2.00;1.80;;;21.40;44.20;;;;;;4930093;28;20595;-74
2023/06/01 01:04:44;;;;;;;1.90;1.80;;;21.30;44.10;;;;;;4933618;28;20226;-71
2023/06/01 01:07:21;;;;;;;1.63;1.53;;;21.30;44.10;;;;;;4933889;28;20550;-73
2023/06/01 01:09:58;;;;;;;1.97;1.87;;;21.40;44.20;;;;;;4926257;28;20236;-73
2023/06/01 01:12:50;;;;;;;1.90;1.80;;;21.30;44.10;;;;;;4933609;28;20533;-73
2023/06/01 01:15:24;;;;;;;2.00;1.90;;;21.30;44.10;;;;;;4929195;28;20522;-73
2023/06/01 01:17:57;;;;;;;2.00;1.90;;;21.30;44.20;;;;;;4931416;28;20476;-72
2023/06/01 01:20:26;;;;;;;1.90;1.80;;;21.30;44.60;;;;;;4929640;28;20464;-72
2023/06/01 01:23:27;;;;;;;1.50;1.40;;;21.30;44.10;;;;;;4933556;28;20494;-73
2023/06/01 01:26:23;;;;;;;1.77;1.53;;;21.30;44.10;;;;;;4926503;28;20491;-73
2023/06/01 01:28:58;;;;;;;1.90;1.70;;;21.30;44.10;;;;;;4929799;28;21067;-72
2023/06/01 01:31:25;;;;;;;2.10;1.90;;;21.30;44.10;;;;;;4929117;28;20505;-73
2023/06/01 01:33:55;;;;;;;2.13;1.90;;;21.30;44.30;;;;;;4927061;28;21019;-73
2023/06/01 01:36:22;;;;;;;1.97;1.87;;;21.30;44.20;;;;;;4926917;28;20465;-74
2023/06/01 01:38:48;;;;;;;1.67;1.57;;;21.30;44.20;;;;;;4932043;28;20474;-71
2023/06/01 01:41:13;;;;;;;1.80;1.70;;;21.30;44.20;;;;;;4928445;28;22322;-74
2023/06/01 01:43:40;;;;;;;1.90;1.80;;;21.30;44.10;;;;;;4928858;28;20230;-73
2023/06/01 01:46:25;;;;;;;1.80;1.70;;;21.30;44.20;;;;;;4928045;28;20241;-74
2023/06/01 01:49:03;;;;;;;2.20;2.00;;;21.30;44.20;;;;;;4930873;28;20495;-72
2023/06/01 01:51:37;;;;;;;1.80;1.70;;;21.30;44.20;;;;;;4928309;28;20467;-74
2023/06/01 01:54:06;;;;;;;2.20;2.10;;;21.30;44.20;;;;;;4929930;28;20450;-72
2023/06/01 01:56:34;;;;;;;2.23;2.03;;;21.30;44.30;;;;;;4930457;28;20514;-74
2023/06/01 01:59:00;;;;;;;2.00;1.90;;;21.30;44.20;;;;;;4932718;28;20526;-73
2023/06/01 02:01:26;;;;;;;2.10;2.00;;;21.30;44.20;;;;;;4930723;28;20530;-74
2023/06/01 02:04:03;;;;;;;3.10;2.80;;;21.30;44.20;;;;;;4928357;28;20496;-74
2023/06/01 02:06:28;;;;;;;2.30;2.10;;;21.30;44.30;;;;;;4929296;28;20228;-74
2023/06/01 02:08:54;;;;;;;2.07;1.97;;;21.30;44.20;;;;;;4928425;28;21082;-74
2023/06/01 02:11:20;;;;;;;2.13;1.93;;;21.30;44.30;;;;;;4929619;28;20871;-74
2023/06/01 02:13:46;;;;;;;2.77;1.90;;;21.30;44.20;;;;;;4931564;28;20312;-74
2023/06/01 02:16:12;;;;;;;2.10;2.00;;;21.30;44.30;;;;;;4926669;28;20884;-74
2023/06/01 02:18:39;;;;;;;2.57;2.37;;;21.30;44.30;;;;;;4929843;28;20476;-72
2023/06/01 02:21:05;;;;;;;2.23;2.07;;;21.30;44.30;;;;;;4925110;28;20603;-74
2023/06/01 02:23:30;;;;;;;2.60;2.50;;;21.30;44.30;;;;;;4927341;28;22396;-71
2023/06/01 02:25:56;;;;;;;2.47;2.30;;;21.30;44.30;;;;;;4932914;28;20482;-74
2023/06/01 02:28:22;;;;;;;2.33;2.13;;;21.30;44.30;;;;;;4928616;28;20230;-73
2023/06/01 02:30:47;;;;;;;2.20;2.10;;;21.30;44.30;;;;;;4928326;28;20745;-74
2023/06/01 02:33:13;;;;;;;2.87;2.47;;;21.30;44.30;;;;;;4929683;28;20362;-74
2023/06/01 02:35:39;;;;;;;1.83;1.73;;;21.30;44.40;;;;;;4927732;28;20230;-74
2023/06/01 02:38:05;;;;;;;2.43;2.23;;;21.30;44.30;;;;;;4930283;28;20218;-72
2023/06/01 02:40:30;;;;;;;2.20;2.00;;;21.30;44.40;;;;;;4930784;28;20439;-73
2023/06/01 02:42:56;;;;;;;2.20;2.10;;;21.30;44.30;;;;;;4927267;28;20620;-73
2023/06/01 02:45:21;;;;;;;2.67;2.47;;;21.30;44.30;;;;;;4928307;28;20249;-74
2023/06/01 02:47:47;;;;;;;2.40;2.20;;;21.30;44.30;;;;;;4929473;28;20225;-74
2023/06/01 02:50:12;;;;;;;2.37;2.27;;;21.30;44.40;;;;;;4928575;28;20735;-74
2023/06/01 02:52:38;;;;;;;2.10;1.90;;;21.30;44.40;;;;;;4929074;28;20320;-71
2023/06/01 02:55:05;;;;;;;2.53;2.43;;;21.30;44.30;;;;;;4928523;28;20277;-72
2023/06/01 02:57:31;;;;;;;3.10;2.20;;;21.30;44.30;;;;;;4930270;28;21103;-74
2023/06/01 02:59:56;;;;;;;2.50;2.37;;;21.30;44.40;;;;;;4928853;28;21038;-74
2023/06/01 03:02:22;;;;;;;3.00;2.80;;;21.30;44.40;;;;;;4926182;28;20255;-71
2023/06/01 03:04:48;;;;;;;2.00;1.90;;;21.30;44.40;;;;;;4928790;28;20970;-74
2023/06/01 03:07:14;;;;;;;2.43;2.33;;;21.30;44.30;;;;;;4933705;28;20218;-74
2023/06/01 03:09:40;;;;;;;2.53;2.43;;;21.30;44.30;;;;;;4929141;28;20454;-75
2023/06/01 03:12:06;;;;;;;2.80;2.70;;;21.30;44.40;;;;;;4929973;28;20248;-70
2023/06/01 03:14:31;;;;;;;2.60;2.40;;;21.30;44.50;;;;;;4931044;28;20241;-72
2023/06/01 03:16:57;;;;;;;2.80;2.67;;;21.30;44.40;;;;;;4930311;28;20463;-77
2023/06/01 03:19:23;;;;;;;2.53;2.37;;;21.30;44.40;;;;;;4929196;28;20695;-74
2023/06/01 03:21:48;;;;;;;2.33;2.13;;;21.20;44.40;;;;;;4928155;28;20687;-74
2023/06/01 03:24:14;;;;;;;2.83;2.50;;;21.20;44.40;;;;;;4929151;28;21534;-73
2023/06/01 03:26:40;;;;;;;2.63;2.53;;;21.30;44.50;;;;;;4928252;28;20233;-73
2023/06/01 03:29:06;;;;;;;3.30;3.10;;;21.30;44.50;;;;;;4929027;28;20233;-74
2023/06/01 03:31:34;;;;;;;2.67;2.57;;;21.30;44.50;;;;;;4917898;28;20464;-73
2023/06/01 03:34:00;;;;;;;2.37;2.27;;;21.20;44.30;;;;;;4924443;28;20226;-74
2023/06/01 03:36:26;;;;;;;3.07;2.77;;;21.20;44.30;;;;;;4919887;28;21091;-74
2023/06/01 03:38:51;;;;;;;2.77;2.57;;;21.30;44.40;;;;;;4927482;28;20456;-71
2023/06/01 03:41:17;;;;;;;2.80;2.60;;;21.20;44.30;;;;;;4922165;28;20291;-71
2023/06/01 03:43:42;;;;;;;2.77;2.67;;;21.20;45.10;;;;;;4928827;28;20331;-70
2023/06/01 03:46:08;;;;;;;2.80;2.60;;;21.20;44.30;;;;;;4924460;28;20812;-71
2023/06/01 03:48:34;;;;;;;2.77;2.57;;;21.20;44.20;;;;;;4928739;28;20256;-73
2023/06/01 03:51:00;;;;;;;3.00;2.80;;;21.20;44.20;;;;;;4924822;28;22608;-72
2023/06/01 03:53:25;;;;;;;3.27;3.07;;;21.20;44.20;;;;;;4930768;28;20304;-75
2023/06/01 03:55:52;;;;;;;3.10;2.90;;;21.20;44.20;;;;;;4927607;28;20222;-72
2023/06/01 03:58:19;;;;;;;3.00;2.90;;;21.20;44.20;;;;;;4925139;28;20229;-72
2023/06/01 04:00:46;;;;;;;2.80;2.60;;;21.30;44.30;;;;;;4921455;28;20824;-73
2023/06/01 04:03:13;;;;;;;3.63;3.33;;;21.20;44.20;;;;;;4925943;28;21022;-72
2023/06/01 04:05:38;;;;;;;3.73;3.47;;;21.20;44.20;;;;;;4932344;28;20472;-72
2023/06/01 04:08:04;;;;;;;2.97;2.77;;;21.20;44.20;;;;;;4927875;28;20444;-71
2023/06/01 04:10:30;;;;;;;2.67;2.57;;;21.20;44.20;;;;;;4927031;28;20547;-73
2023/06/01 04:12:56;;;;;;;3.20;3.00;;;21.20;44.20;;;;;;4923741;28;20694;-71
2023/06/01 04:15:22;;;;;;;2.97;2.77;;;21.20;44.20;;;;;;4923332;28;20464;-72
2023/06/01 04:17:48;;;;;;;2.80;2.60;;;21.20;44.20;;;;;;4932219;28;20308;-71
2023/06/01 04:20:16;;;;;;;2.70;2.50;;;21.20;44.20;;;;;;4923654;28;22275;-71
2023/06/01 04:22:42;;;;;;;2.90;2.70;;;21.20;44.20;;;;;;4925913;28;20353;-72
2023/06/01 04:25:11;;;;;;;3.40;3.20;;;21.20;44.20;;;;;;4924659;28;20498;-72
2023/06/01 04:27:37;;;;;;;3.10;2.90;;;21.20;44.30;;;;;;4926063;28;20444;-71
2023/06/01 04:30:08;;;;;;;2.80;2.70;;;21.20;44.20;;;;;;4921641;28;20462;-71
2023/06/01 04:32:43;;;;;;;2.93;2.73;;;21.20;44.30;;;;;;4940182;28;20280;-72
2023/06/01 04:35:10;;;;;;;2.80;2.60;;;21.20;44.30;;;;;;4924414;28;20471;-71
2023/06/01 04:37:39;;;;;;;3.17;2.97;;;21.20;44.20;;;;;;4920359;28;20453;-71
2023/06/01 04:40:09;;;;;;;5.13;3.40;;;21.20;44.30;;;;;;4925610;28;20558;-73
2023/06/01 04:42:38;;;;;;;3.10;2.90;;;21.20;44.20;;;;;;4927205;28;20453;-73
2023/06/01 04:45:04;;;;;;;4.20;3.90;;;21.30;44.30;;;;;;4927090;28;20499;-73
2023/06/01 04:47:31;;;;;;;3.57;3.37;;;21.30;44.30;;;;;;4931489;28;20474;-73
2023/06/01 04:49:57;;;;;;;4.00;3.80;;;21.30;44.30;;;;;;4930598;28;20579;-73
2023/06/01 04:52:23;;;;;;;3.87;3.67;;;21.30;44.30;;;;;;4933303;28;20529;-72
2023/06/01 04:54:49;;;;;;;3.83;3.53;;;21.30;44.30;;;;;;4928260;28;21031;-71
2023/06/01 04:57:14;;;;;;;4.30;4.00;;;21.30;44.30;;;;;;4932622;28;20445;-71
2023/06/01 04:59:41;;;;;;;4.20;4.00;;;21.30;44.20;;;;;;4925802;28;20225;-70
2023/06/01 05:02:07;;;;;;;4.40;4.00;;;21.30;44.20;;;;;;4928914;28;20287;-70
2023/06/01 05:04:32;;;;;;;5.20;4.63;;;21.30;44.20;;;;;;4930409;28;20513;-71
2023/06/01 05:06:58;;;;;;;4.83;4.43;;;21.30;44.20;;;;;;4930867;28;20225;-72
2023/06/01 05:09:23;;;;;;;4.73;4.33;;;21.30;44.20;;;;;;4927149;28;20356;-70
2023/06/01 05:11:49;;;;;;;5.60;4.30;;;21.30;44.20;;;;;;4921942;28;20693;-70
2023/06/01 05:14:15;;;;;;;4.13;3.83;;;21.30;44.20;;;;;;4926644;28;20259;-69
2023/06/01 05:16:40;;;;;;;4.47;4.07;;;21.30;44.20;;;;;;4916844;28;20313;-70
2023/06/01 05:19:06;;;;;;;6.40;5.50;;;21.30;44.20;;;;;;4923769;28;20252;-71
2023/06/01 05:21:31;;;;;;;4.50;4.10;;;21.30;44.20;;;;;;4928192;28;20247;-70
2023/06/01 05:23:57;;;;;;;6.70;5.25;;;21.30;44.20;;;;;;4924562;28;20721;-70
2023/06/01 05:26:23;;;;;;;5.63;5.13;;;21.30;44.20;;;;;;4925324;28;21988;-71
2023/06/01 05:28:48;;;;;;;5.63;5.20;;;21.30;44.20;;;;;;4932233;28;20234;-71
2023/06/01 05:31:14;;;;;;;6.07;5.53;;;21.30;44.20;;;;;;4925006;28;20226;-70
2023/06/01 05:33:40;;;;;;;5.67;5.00;;;21.30;44.20;;;;;;4933591;28;20257;-71
2023/06/01 05:36:06;;;;;;;8.17;5.60;;;21.30;44.10;;;;;;4929673;28;20230;-71
2023/06/01 05:38:31;;;;;;;6.30;5.40;;;21.30;44.10;;;;;;4933797;28;20322;-66
2023/06/01 05:40:57;;;;;;;5.50;5.10;;;21.30;44.20;;;;;;4927380;28;20467;-66
2023/06/01 05:43:22;;;;;;;6.93;5.87;;;21.30;44.20;;;;;;4927802;28;20230;-72
2023/06/01 05:45:48;;;;;;;7.90;6.37;;;21.30;44.20;;;;;;4927969;28;20249;-71
2023/06/01 05:48:14;;;;;;;7.20;6.63;;;21.40;44.30;;;;;;4930038;28;20286;-71
2023/06/01 05:50:41;;;;;;;7.47;6.77;;;21.30;44.20;;;;;;4925571;28;20788;-71
2023/06/01 05:53:07;;;;;;;7.73;7.10;;;21.40;44.30;;;;;;4929843;28;20475;-70
2023/06/01 05:55:33;;;;;;;7.10;6.50;;;21.40;44.30;;;;;;4930314;28;20447;-70
2023/06/01 05:57:58;;;;;;;7.53;6.90;;;21.40;44.30;;;;;;4929669;28;20799;-71
2023/06/01 06:00:24;;;;;;;8.00;7.30;;;21.40;44.30;;;;;;4934724;28;20259;-71
2023/06/01 06:02:50;;;;;;;10.23;7.77;;;21.40;44.30;;;;;;4930193;28;20237;-71
2023/06/01 06:05:15;;;;;;;7.90;7.10;;;21.40;44.30;;;;;;4928446;28;20581;-71
2023/06/01 06:07:41;;;;;;;7.67;6.93;;;21.40;44.30;;;;;;4929774;28;20217;-70
2023/06/01 06:10:07;;;;;;;9.20;7.60;;;21.40;44.30;;;;;;4929624;28;20264;-71
2023/06/01 06:12:33;;;;;;;9.27;8.43;;;21.40;44.30;;;;;;4929479;28;20234;-71
2023/06/01 06:14:59;;;;;;;8.80;7.90;;;21.40;44.30;;;;;;4941256;28;20460;-71
2023/06/01 06:17:24;;;;;;;8.70;7.90;;;21.40;44.30;;;;;;4926630;28;20222;-71
2023/06/01 06:19:50;;;;;;;10.07;7.47;;;21.40;44.30;;;;;;4928894;28;20296;-70
2023/06/01 06:22:16;;;;;;;9.97;8.57;;;21.40;44.30;;;;;;4930856;28;20721;-70
2023/06/01 06:24:44;;;;;;;8.23;7.50;;;21.40;44.30;;;;;;4929585;28;20246;-70
2023/06/01 06:27:10;;;;;;;9.60;8.70;;;21.40;44.40;;;;;;4930091;28;20232;-71
2023/06/01 06:29:36;;;;;;;9.20;8.40;;;21.30;44.20;;;;;;4927169;28;20448;-71
2023/06/01 06:32:02;;;;;;;9.80;8.80;;;21.40;44.30;;;;;;4929426;28;20350;-70
2023/06/01 06:34:34;;;;;;;10.27;9.20;;;21.40;44.30;;;;;;4930394;28;20604;-70
2023/06/01 06:37:04;;;;;;;9.60;8.60;;;21.40;44.40;;;;;;4930643;28;20472;-71
2023/06/01 06:39:29;;;;;;;9.20;8.30;;;21.40;44.30;;;;;;4931352;28;20489;-70
2023/06/01 06:41:55;;;;;;;10.23;8.77;;;21.40;44.30;;;;;;4930708;28;20566;-71
2023/06/01 06:44:20;;;;;;;10.17;9.23;;;21.40;44.30;;;;;;4929095;28;21169;-71
2023/06/01 06:46:46;;;;;;;11.30;9.30;;;21.40;44.40;;;;;;4929987;28;20230;-71
2023/06/01 06:49:11;;;;;;;11.70;10.23;;;21.40;44.30;;;;;;4941115;28;20221;-71
2023/06/01 06:51:37;;;;;;;10.53;9.53;;;21.40;44.30;;;;;;4931334;28;20236;-71
2023/06/01 06:54:05;;;;;;;12.13;9.97;;;21.40;44.40;;;;;;4931366;28;20303;-71
2023/06/01 06:56:31;;;;;;;10.30;9.30;;;21.40;44.30;;;;;;4931289;28;20610;-71
2023/06/01 06:58:56;;;;;;;10.33;9.37;;;21.40;44.40;;;;;;4931679;28;21004;-71
2023/06/01 07:01:25;;;;;;;12.50;8.90;;;21.40;44.40;;;;;;4932708;28;20233;-71
2023/06/01 07:03:51;;;;;;;10.37;9.30;;;21.40;44.30;;;;;;4933113;28;20308;-70
2023/06/01 07:06:17;;;;;;;11.63;10.43;;;21.40;44.30;;;;;;4927153;28;20479;-71
2023/06/01 07:08:43;;;;;;;13.77;10.00;;;21.40;44.30;;;;;;4931305;28;20471;-71
2023/06/01 07:11:09;;;;;;;16.20;10.73;;;21.40;44.30;;;;;;4930149;28;20632;-71
2023/06/01 07:13:35;;;;;;;10.60;9.60;;;21.40;44.30;;;;;;4928938;28;20459;-70
2023/06/01 07:16:02;;;;;;;12.27;10.10;;;21.40;44.40;;;;;;4928735;28;21042;-70
2023/06/01 07:18:27;;;;;;;11.30;9.97;;;21.40;44.30;;;;;;4928685;28;20272;-71
2023/06/01 07:20:53;;;;;;;11.80;9.80;;;21.40;44.30;;;;;;4930666;28;20805;-71
2023/06/01 07:23:18;;;;;;;12.40;10.83;;;21.40;44.30;;;;;;4933738;28;20237;-71
2023/06/01 07:25:44;;;;;;;11.97;10.77;;;21.40;44.30;;;;;;4931364;28;20367;-70
2023/06/01 07:28:09;;;;;;;13.13;11.83;;;21.40;44.30;;;;;;4930868;28;20276;-71
2023/06/01 07:30:35;;;;;;;12.17;10.43;;;21.40;44.30;;;;;;4930864;28;20945;-71
2023/06/01 07:33:03;;;;;;;11.97;10.70;;;21.40;44.30;;;;;;4930401;28;20288;-70
2023/06/01 07:35:29;;;;;;;10.97;9.97;;;21.40;44.30;;;;;;4923519;28;20234;-70
2023/06/01 07:37:55;;;;;;;11.60;10.50;;;21.40;44.40;;;;;;4925555;28;20471;-70
2023/06/01 07:40:20;;;;;;;11.67;10.50;;;21.40;44.30;;;;;;4925591;28;20252;-73
2023/06/01 07:42:46;;;;;;;11.97;10.60;;;21.40;44.30;;;;;;4924014;28;20604;-70
2023/06/01 07:45:13;;;;;;;11.37;10.20;;;21.40;44.30;;;;;;4925322;28;20369;-71
2023/06/01 07:47:38;;;;;;;13.43;11.40;;;21.40;44.30;;;;;;4931149;28;20265;-71
2023/06/01 07:50:04;;;;;;;13.07;10.27;;;21.40;44.30;;;;;;4929289;28;20570;-71
2023/06/01 07:52:30;;;;;;;12.57;10.67;;;21.40;44.30;;;;;;4931397;28;20284;-71
2023/06/01 07:54:56;;;;;;;12.47;11.20;;;21.40;44.30;;;;;;4929013;28;20468;-71
2023/06/01 07:57:22;;;;;;;11.43;9.93;;;21.40;44.30;;;;;;4928819;28;20451;-70
2023/06/01 07:59:47;;;;;;;11.53;10.33;;;21.40;44.30;;;;;;4928003;28;20230;-71
2023/06/01 08:02:13;;;;;;;10.63;9.63;;;21.40;44.30;;;;;;4932966;28;20268;-71
2023/06/01 08:04:39;;;;;;;11.13;9.93;;;21.40;44.30;;;;;;4929400;28;20305;-70
2023/06/01 08:07:07;;;;;;;13.40;10.77;;;21.40;44.30;;;;;;4923504;28;21513;-71
2023/06/01 08:09:32;;;;;;;10.67;9.70;;;21.50;44.40;;;;;;4926394;28;20995;-70
2023/06/01 08:11:58;;;;;;;13.40;10.20;;;21.50;44.40;;;;;;4926677;28;20463;-70
2023/06/01 08:14:24;;;;;;;11.50;10.30;;;21.50;44.40;;;;;;4930300;28;20275;-69
2023/06/01 08:16:51;;;;;;;11.73;10.33;;;21.50;44.40;;;;;;4927825;28;20225;-69
2023/06/01 08:19:17;;;;;;;11.00;9.90;;;21.40;44.30;;;;;;4924557;28;20223;-69
2023/06/01 08:21:45;;;;;;;10.63;9.63;;;21.50;44.40;;;;;;4928381;28;20455;-69
2023/06/01 08:24:12;;;;;;;12.30;10.97;;;21.50;44.40;;;;;;4930990;28;20563;-72
2023/06/01 08:26:38;;;;;;;12.00;10.80;;;21.50;44.40;;;;;;4929413;28;20928;-72
2023/06/01 08:29:03;;;;;;;12.10;10.57;;;21.50;44.40;;;;;;4925284;28;20967;-72
2023/06/01 08:31:29;;;;;;;11.33;10.17;;;21.50;44.40;;;;;;4933736;28;20755;-71
2023/06/01 08:33:55;;;;;;;11.23;10.03;;;21.50;44.40;;;;;;4931667;28;20724;-71
2023/06/01 08:36:21;;;;;;;10.93;9.83;;;21.50;44.30;;;;;;4931565;28;20237;-71
2023/06/01 08:38:46;;;;;;;11.37;10.20;;;21.50;44.40;;;;;;4933910;28;20975;-71
2023/06/01 08:41:37;;;;;;;11.63;10.43;;;21.50;44.40;;;;;;4932346;28;20818;-71
2023/06/01 08:44:05;;;;;;;11.43;9.80;;;21.50;44.40;;;;;;4934543;28;20229;-71
2023/06/01 08:46:36;;;;;;;10.47;9.47;;;21.50;44.40;;;;;;4930709;28;20519;-71
2023/06/01 08:49:03;;;;;;;12.00;10.57;;;21.50;44.40;;;;;;4932246;28;21076;-71
2023/06/01 08:51:33;;;;;;;11.97;10.73;;;21.50;44.30;;;;;;4929678;28;20514;-71
2023/06/01 08:54:02;;;;;;;10.20;9.20;;;21.50;44.40;;;;;;4931556;28;20814;-71
2023/06/01 08:56:28;;;;;;;10.70;9.60;;;21.50;44.40;;;;;;4932648;28;20442;-71
2023/06/01 08:58:55;;;;;;;10.90;9.80;;;21.50;44.40;;;;;;4933938;28;20455;-71
2023/06/01 09:01:21;;;;;;;10.60;9.60;;;21.50;44.40;;;;;;4931897;28;20244;-71
2023/06/01 09:03:51;;;;;;;12.07;10.53;;;21.50;44.40;;;;;;4937851;28;20467;-71
2023/06/01 09:06:17;;;;;;;11.13;9.93;;;21.50;44.40;;;;;;4930959;28;20464;-72
2023/06/01 09:08:44;;;;;;;11.67;10.47;;;21.50;44.40;;;;;;4932253;28;20486;-71
2023/06/01 09:11:10;;;;;;;11.50;10.40;;;21.50;44.40;;;;;;4932405;28;20218;-71
2023/06/01 09:13:37;;;;;;;10.43;9.30;;;21.50;44.40;;;;;;4935810;28;20471;-71
2023/06/01 09:16:03;;;;;;;10.40;9.40;;;21.50;44.30;;;;;;4932044;28;20956;-71
2023/06/01 09:18:29;;;;;;;11.07;10.07;;;21.50;44.40;;;;;;4934370;28;21044;-71
2023/06/01 09:21:09;;;;;;;10.90;9.43;;;21.50;44.40;;;;;;4927905;28;20456;-71
2023/06/01 09:23:34;;;;;;;9.67;8.80;;;21.50;44.40;;;;;;4933550;28;20221;-72
2023/06/01 09:26:07;;;;;;;10.90;9.70;;;21.50;44.40;;;;;;4931647;28;21057;-71
2023/06/01 09:28:51;;;;;;;10.33;9.43;;;21.50;44.40;;;;;;4933425;28;20225;-71
2023/06/01 09:31:35;;;;;;;9.43;8.53;;;21.50;44.40;;;;;;4933426;28;20812;-72
2023/06/01 09:34:03;;;;;;;10.37;9.37;;;21.50;44.40;;;;;;4931689;28;20475;-72
2023/06/01 09:36:29;;;;;;;10.20;8.90;;;21.50;44.40;;;;;;4936298;28;21030;-71
2023/06/01 09:39:10;;;;;;;9.37;8.57;;;21.50;44.80;;;;;;4932382;28;20497;-71
2023/06/01 09:42:04;;;;;;;11.13;10.00;;;21.50;44.30;;;;;;4931898;28;20560;-71
2023/06/01 09:44:32;;;;;;;9.73;8.90;;;21.50;44.40;;;;;;4929374;28;20499;-71
2023/06/01 09:46:59;;;;;;;10.20;9.30;;;21.50;45.20;;;;;;4930989;28;20466;-71
2023/06/01 09:49:33;;;;;;;9.63;8.77;;;21.50;44.40;;;;;;4932035;28;20918;-72
2023/06/01 09:52:05;;;;;;;10.17;9.17;;;21.50;44.40;;;;;;4931924;28;20464;-72
2023/06/01 09:54:33;;;;;;;9.70;8.80;;;21.50;44.40;;;;;;4930867;28;20468;-72
2023/06/01 09:57:00;;;;;;;8.73;7.93;;;21.50;44.40;;;;;;4931482;28;21303;-72
2023/06/01 09:59:30;;;;;;;9.27;8.40;;;21.50;44.40;;;;;;4930782;28;20467;-72
2023/06/01 10:01:57;;;;;;;9.23;8.30;;;21.50;44.40;;;;;;4930468;28;20464;-71
2023/06/01 10:04:27;;;;;;;8.77;8.07;;;21.50;44.40;;;;;;4929676;28;20467;-72
2023/06/01 10:06:55;;;;;;;9.23;8.43;;;21.50;44.40;;;;;;4929449;28;20468;-71
2023/06/01 10:09:24;;;;;;;9.13;8.33;;;21.50;44.40;;;;;;4929783;28;20889;-71
2023/06/01 10:11:53;;;;;;;8.77;7.97;;;21.50;44.40;;;;;;4931301;28;20558;-71
2023/06/01 10:14:19;;;;;;;8.50;7.80;;;21.50;44.30;;;;;;4929669;28;20472;-72
2023/06/01 10:16:45;;;;;;;9.07;8.27;;;21.50;44.40;;;;;;4932048;28;20828;-71
2023/06/01 10:19:12;;;;;;;8.83;8.00;;;21.50;44.30;;;;;;4933131;28;20451;-72
2023/06/01 10:21:39;;;;;;;8.57;7.73;;;21.50;44.30;;;;;;4931326;28;20249;-72
2023/06/01 10:24:07;;;;;;;7.90;7.20;;;21.50;44.30;;;;;;4931863;28;20474;-71
2023/06/01 10:26:47;;;;;;;9.17;8.20;;;21.50;44.30;;;;;;4929958;28;20483;-71
2023/06/01 10:29:17;;;;;;;8.30;7.60;;;21.50;44.30;;;;;;4928613;28;20460;-71
2023/06/01 10:31:43;;;;;;;8.13;7.33;;;21.60;44.40;;;;;;4932033;28;20460;-71
2023/06/01 10:34:10;;;;;;;7.73;7.03;;;21.50;44.40;;;;;;4927188;28;21050;-72
2023/06/01 10:36:51;;;;;;;9.00;8.20;;;21.60;44.40;;;;;;4928161;28;20230;-71
2023/06/01 10:39:32;;;;;;;8.00;7.27;;;21.50;44.30;;;;;;4931180;28;20463;-71
2023/06/01 10:42:18;;;;;;;7.10;6.60;;;21.60;44.40;;;;;;4930509;28;20468;-72
2023/06/01 10:44:47;;;;;;;8.20;7.50;;;21.60;44.30;;;;;;4930217;28;21224;-71
2023/06/01 10:47:12;;;;;;;7.37;6.63;;;21.60;44.30;;;;;;4931230;28;20491;-71
2023/06/01 10:49:47;;;;;;;7.43;6.83;;;21.60;44.40;;;;;;4933624;28;20456;-71
2023/06/01 10:52:26;;;;;;;7.40;6.87;;;21.60;44.40;;;;;;4932001;28;20245;-71
2023/06/01 10:54:52;;;;;;;7.40;6.80;;;21.60;44.30;;;;;;4930209;28;20471;-71
2023/06/01 10:57:26;;;;;;;7.23;6.60;;;21.60;44.30;;;;;;4933854;28;20550;-71
2023/06/01 11:00:19;;;;;;;7.53;6.90;;;21.60;44.30;;;;;;4929152;28;21524;-72
2023/06/01 11:02:48;;;;;;;7.67;7.07;;;21.60;44.30;;;;;;4929774;28;20468;-71
2023/06/01 11:05:48;;;;;;;7.60;6.93;;;21.60;44.30;;;;;;4931000;28;20530;-71
2023/06/01 11:08:17;;;;;;;7.80;6.30;;;21.60;44.40;;;;;;4929234;28;20986;-71
2023/06/01 11:10:55;;;;;;;6.70;6.23;;;21.60;44.30;;;;;;4928853;28;20529;-71
2023/06/01 11:13:33;;;;;;;6.20;5.70;;;21.60;44.30;;;;;;4925459;28;21131;-71
2023/06/01 11:16:07;;;;;;;7.77;7.13;;;21.60;44.30;;;;;;4926859;28;20918;-71
2023/06/01 11:18:57;;;;;;;6.90;6.40;;;21.60;44.30;;;;;;4928507;28;20493;-72
2023/06/01 11:21:30;;;;;;;6.27;5.80;;;21.60;44.30;;;;;;4929691;28;20464;-71
2023/06/01 11:23:58;;;;;;;6.17;5.73;;;21.60;44.30;;;;;;4930178;28;20486;-71
2023/06/01 11:26:48;;;;;;;6.20;5.70;;;21.60;44.30;;;;;;4930909;28;20472;-71
2023/06/01 11:29:16;;;;;;;6.70;6.13;;;21.60;44.20;;;;;;4929460;28;20467;-71
2023/06/01 11:31:45;;;;;;;6.40;6.00;;;21.60;44.30;;;;;;4930366;28;20507;-71
2023/06/01 11:34:12;;;;;;;7.10;6.60;;;21.60;44.30;;;;;;4929509;28;20462;-71
2023/06/01 11:36:43;;;;;;;6.70;6.20;;;21.60;44.30;;;;;;4928822;28;20721;-71
2023/06/01 11:39:20;;;;;;;6.10;5.70;;;21.60;44.20;;;;;;4926728;28;20455;-71
2023/06/01 11:41:50;;;;;;;6.30;5.80;;;21.60;44.20;;;;;;4931491;28;20456;-71
2023/06/01 11:44:16;;;;;;;6.27;5.73;;;21.60;44.20;;;;;;4928038;28;20460;-71
2023/06/01 11:46:56;;;;;;;6.27;5.77;;;21.60;44.20;;;;;;4929728;28;20688;-71
2023/06/01 11:49:22;;;;;;;6.00;5.60;;;21.60;44.20;;;;;;4930841;28;20272;-71
2023/06/01 11:51:48;;;;;;;6.07;5.63;;;21.60;44.20;;;;;;4929562;28;20468;-71
2023/06/01 11:54:13;;;;;;;6.27;5.77;;;21.60;44.20;;;;;;4930703;28;20478;-71
2023/06/01 11:56:40;;;;;;;5.87;5.43;;;21.60;44.20;;;;;;4932034;28;20471;-71
2023/06/01 11:59:10;;;;;;;5.70;5.33;;;21.60;44.20;;;;;;4933264;28;20225;-71
2023/06/01 12:01:42;;;;;;;6.43;5.93;;;21.60;44.20;;;;;;4936358;28;20475;-70
2023/06/01 12:04:12;;;;;;;5.77;5.27;;;21.60;44.20;;;;;;4935051;28;20868;-71
2023/06/01 12:06:38;;;;;;;6.10;5.67;;;21.60;44.10;;;;;;4932548;28;20490;-71
2023/06/01 12:09:06;;;;;;;5.53;5.13;;;21.60;44.20;;;;;;4934303;28;20460;-71
2023/06/01 12:11:32;;;;;;;6.60;5.93;;;21.60;44.20;;;;;;4932519;28;20227;-71
2023/06/01 12:13:59;;;;;;;5.83;5.53;;;21.60;44.20;;;;;;4936478;28;20452;-71
2023/06/01 12:16:27;;;;;;;5.83;5.43;;;21.70;44.20;;;;;;4927122;28;21034;-71
2023/06/01 12:18:54;;;;;;;6.97;6.40;;;21.60;44.10;;;;;;4936032;28;20489;-71
2023/06/01 12:21:20;;;;;;;5.87;5.47;;;21.70;44.20;;;;;;4933542;28;20467;-71
2023/06/01 12:23:51;;;;;;;5.53;5.23;;;21.70;44.20;;;;;;4933478;28;21540;-71
2023/06/01 12:26:17;;;;;;;5.93;5.43;;;21.70;44.20;;;;;;4926682;28;20236;-71
2023/06/01 12:28:54;;;;;;;5.30;4.90;;;21.70;44.20;;;;;;4927037;28;20806;-71
2023/06/01 12:31:20;;;;;;;5.63;5.20;;;21.60;44.20;;;;;;4930839;28;20275;-71
2023/06/01 12:33:48;;;;;;;6.00;5.60;;;21.70;44.20;;;;;;4929703;28;20478;-71
2023/06/01 12:36:34;;;;;;;6.07;5.57;;;21.70;44.20;;;;;;4928878;28;21049;-68
2023/06/01 12:39:00;;;;;;;5.73;5.33;;;21.70;44.20;;;;;;4931630;28;20495;-68
2023/06/01 12:41:26;;;;;;;5.40;5.00;;;21.70;44.20;;;;;;4934932;28;20469;-68
2023/06/01 12:43:53;;;;;;;5.33;4.93;;;21.70;44.20;;;;;;4927464;28;20467;-68
2023/06/01 12:46:22;;;;;;;5.53;5.13;;;21.70;44.20;;;;;;4932373;28;20988;-67
2023/06/01 12:48:49;;;;;;;4.90;4.60;;;21.70;44.20;;;;;;4925957;28;20481;-67